sensor_id;sensor_type;location;lat;lon;timestamp;P1;durP1;ratioP1;P2;durP2;ratioP2
29330;SDS011;16331;52.528;13.342;2023-02-08T00:01:51;52.60;;;20.25;;
29330;SDS011;16331;52.528;13.342;2023-02-08T00:04:17;50.25;;;18.63;;
29330;SDS011;16331;52.528;13.342;2023-02-08T00:06:43;44.65;;;17.05;;
29330;SDS011;16331;52.528;13.342;2023-02-08T00:09:11;44.38;;;16.75;;
29330;SDS011;16331;52.528;13.342;2023-02-08T00:11:39;44.35;;;16.30;;
29330;SDS011;16331;52.528;13.342;2023-02-08T00:14:07;50.85;;;18.48;;
29330;SDS011;16331;52.528;13.342;2023-02-08T00:16:33;40.53;;;16.77;;
29330;SDS011;16331;52.528;13.342;2023-02-08T00:19:00;41.88;;;16.23;;
29330;SDS011;16331;52.528;13.342;2023-02-08T00:21:30;38.28;;;15.93;;
29330;SDS011;16331;52.528;13.342;2023-02-08T00:24:00;43.83;;;17.40;;
29330;SDS011;16331;52.528;13.342;2023-02-08T00:26:31;48.42;;;16.55;;
29330;SDS011;16331;52.528;13.342;2023-02-08T00:29:00;49.20;;;17.65;;
29330;SDS011;16331;52.528;13.342;2023-02-08T00:31:26;44.30;;;17.77;;
29330;SDS011;16331;52.528;13.342;2023-02-08T00:33:55;35.88;;;16.10;;
29330;SDS011;16331;52.528;13.342;2023-02-08T00:36:21;45.85;;;16.13;;
29330;SDS011;16331;52.528;13.342;2023-02-08T00:38:53;45.72;;;15.90;;
29330;SDS011;16331;52.528;13.342;2023-02-08T00:41:19;42.53;;;15.15;;
29330;SDS011;16331;52.528;13.342;2023-02-08T00:43:45;50.17;;;16.73;;
29330;SDS011;16331;52.528;13.342;2023-02-08T00:46:14;39.35;;;15.10;;
29330;SDS011;16331;52.528;13.342;2023-02-08T00:48:45;45.20;;;17.33;;
29330;SDS011;16331;52.528;13.342;2023-02-08T00:51:13;39.53;;;15.13;;
29330;SDS011;16331;52.528;13.342;2023-02-08T00:53:44;45.40;;;16.83;;
29330;SDS011;16331;52.528;13.342;2023-02-08T00:56:11;46.90;;;16.05;;
29330;SDS011;16331;52.528;13.342;2023-02-08T00:58:39;46.53;;;17.27;;
29330;SDS011;16331;52.528;13.342;2023-02-08T01:01:06;45.10;;;16.88;;
29330;SDS011;16331;52.528;13.342;2023-02-08T01:03:33;59.08;;;17.35;;
29330;SDS011;16331;52.528;13.342;2023-02-08T01:06:03;55.03;;;16.85;;
29330;SDS011;16331;52.528;13.342;2023-02-08T01:08:35;51.70;;;18.17;;
29330;SDS011;16331;52.528;13.342;2023-02-08T01:11:12;41.47;;;15.95;;
29330;SDS011;16331;52.528;13.342;2023-02-08T01:13:46;37.90;;;15.32;;
29330;SDS011;16331;52.528;13.342;2023-02-08T01:16:22;50.33;;;15.40;;
29330;SDS011;16331;52.528;13.342;2023-02-08T01:18:54;40.10;;;15.27;;
29330;SDS011;16331;52.528;13.342;2023-02-08T01:21:24;35.42;;;16.02;;
29330;SDS011;16331;52.528;13.342;2023-02-08T01:23:54;42.35;;;15.70;;
29330;SDS011;16331;52.528;13.342;2023-02-08T01:26:24;48.42;;;17.92;;
29330;SDS011;16331;52.528;13.342;2023-02-08T01:28:55;42.25;;;16.35;;
29330;SDS011;16331;52.528;13.342;2023-02-08T01:31:28;42.90;;;15.93;;
29330;SDS011;16331;52.528;13.342;2023-02-08T01:33:58;49.97;;;16.63;;
29330;SDS011;16331;52.528;13.342;2023-02-08T01:36:27;47.70;;;17.58;;
29330;SDS011;16331;52.528;13.342;2023-02-08T01:38:56;48.72;;;17.52;;
29330;SDS011;16331;52.528;13.342;2023-02-08T01:41:23;46.17;;;18.85;;
29330;SDS011;16331;52.528;13.342;2023-02-08T01:46:41;51.00;;;20.42;;
29330;SDS011;16331;52.528;13.342;2023-02-08T01:49:27;71.30;;;24.48;;
29330;SDS011;16331;52.528;13.342;2023-02-08T01:52:12;58.70;;;23.55;;
29330;SDS011;16331;52.528;13.342;2023-02-08T01:54:44;55.88;;;22.90;;
29330;SDS011;16331;52.528;13.342;2023-02-08T01:57:41;58.00;;;22.95;;
29330;SDS011;16331;52.528;13.342;2023-02-08T02:00:30;61.50;;;24.17;;
29330;SDS011;16331;52.528;13.342;2023-02-08T02:02:59;66.88;;;21.98;;
29330;SDS011;16331;52.528;13.342;2023-02-08T02:05:38;57.50;;;21.45;;
29330;SDS011;16331;52.528;13.342;2023-02-08T02:08:09;64.07;;;21.83;;
29330;SDS011;16331;52.528;13.342;2023-02-08T02:10:43;57.38;;;21.80;;
29330;SDS011;16331;52.528;13.342;2023-02-08T02:13:15;64.15;;;24.90;;
29330;SDS011;16331;52.528;13.342;2023-02-08T02:15:47;58.22;;;21.35;;
29330;SDS011;16331;52.528;13.342;2023-02-08T02:18:27;61.15;;;22.17;;
29330;SDS011;16331;52.528;13.342;2023-02-08T02:21:08;60.75;;;22.45;;
29330;SDS011;16331;52.528;13.342;2023-02-08T02:30:08;57.83;;;20.95;;
29330;SDS011;16331;52.528;13.342;2023-02-08T02:33:18;58.65;;;22.42;;
29330;SDS011;16331;52.528;13.342;2023-02-08T02:38:54;44.78;;;18.75;;
29330;SDS011;16331;52.528;13.342;2023-02-08T02:41:53;53.92;;;19.08;;
29330;SDS011;16331;52.528;13.342;2023-02-08T02:45:39;51.28;;;21.00;;
29330;SDS011;16331;52.528;13.342;2023-02-08T02:51:02;56.38;;;20.55;;
29330;SDS011;16331;52.528;13.342;2023-02-08T02:56:31;54.10;;;19.23;;
29330;SDS011;16331;52.528;13.342;2023-02-08T02:59:07;51.25;;;20.52;;
29330;SDS011;16331;52.528;13.342;2023-02-08T03:01:42;58.13;;;18.77;;
29330;SDS011;16331;52.528;13.342;2023-02-08T03:12:54;43.00;;;17.38;;
29330;SDS011;16331;52.528;13.342;2023-02-08T03:18:35;52.28;;;18.38;;
29330;SDS011;16331;52.528;13.342;2023-02-08T03:24:23;43.20;;;16.15;;
29330;SDS011;16331;52.528;13.342;2023-02-08T03:27:21;49.55;;;17.88;;
29330;SDS011;16331;52.528;13.342;2023-02-08T03:32:54;52.90;;;18.65;;
29330;SDS011;16331;52.528;13.342;2023-02-08T03:36:15;42.83;;;16.65;;
29330;SDS011;16331;52.528;13.342;2023-02-08T03:39:05;40.83;;;15.93;;
29330;SDS011;16331;52.528;13.342;2023-02-08T03:41:37;45.50;;;15.70;;
29330;SDS011;16331;52.528;13.342;2023-02-08T03:44:22;56.85;;;17.95;;
29330;SDS011;16331;52.528;13.342;2023-02-08T03:46:59;46.58;;;15.95;;
29330;SDS011;16331;52.528;13.342;2023-02-08T03:49:42;36.72;;;14.68;;
29330;SDS011;16331;52.528;13.342;2023-02-08T03:52:11;45.67;;;16.08;;
29330;SDS011;16331;52.528;13.342;2023-02-08T03:54:41;41.83;;;15.35;;
29330;SDS011;16331;52.528;13.342;2023-02-08T04:00:24;37.90;;;15.75;;
29330;SDS011;16331;52.528;13.342;2023-02-08T04:03:04;45.80;;;16.60;;
29330;SDS011;16331;52.528;13.342;2023-02-08T04:05:40;42.75;;;16.80;;
29330;SDS011;16331;52.528;13.342;2023-02-08T04:08:07;42.45;;;15.90;;
29330;SDS011;16331;52.528;13.342;2023-02-08T04:10:33;46.88;;;14.88;;
29330;SDS011;16331;52.528;13.342;2023-02-08T04:13:08;38.72;;;14.70;;
29330;SDS011;16331;52.528;13.342;2023-02-08T04:15:37;47.97;;;14.88;;
29330;SDS011;16331;52.528;13.342;2023-02-08T04:18:07;47.80;;;16.20;;
29330;SDS011;16331;52.528;13.342;2023-02-08T04:20:37;46.60;;;14.60;;
29330;SDS011;16331;52.528;13.342;2023-02-08T04:23:09;38.97;;;14.27;;
29330;SDS011;16331;52.528;13.342;2023-02-08T04:25:39;38.95;;;15.13;;
29330;SDS011;16331;52.528;13.342;2023-02-08T04:28:11;42.50;;;14.43;;
29330;SDS011;16331;52.528;13.342;2023-02-08T04:33:20;40.88;;;14.10;;
29330;SDS011;16331;52.528;13.342;2023-02-08T04:35:48;41.95;;;14.80;;
29330;SDS011;16331;52.528;13.342;2023-02-08T04:38:15;40.17;;;15.93;;
29330;SDS011;16331;52.528;13.342;2023-02-08T04:40:42;34.50;;;14.93;;
29330;SDS011;16331;52.528;13.342;2023-02-08T04:43:08;50.38;;;16.63;;
29330;SDS011;16331;52.528;13.342;2023-02-08T04:45:37;41.60;;;15.93;;
29330;SDS011;16331;52.528;13.342;2023-02-08T04:48:04;38.28;;;15.40;;
29330;SDS011;16331;52.528;13.342;2023-02-08T04:50:32;40.55;;;13.68;;
29330;SDS011;16331;52.528;13.342;2023-02-08T04:52:59;41.95;;;15.10;;
29330;SDS011;16331;52.528;13.342;2023-02-08T04:55:25;54.35;;;15.48;;
29330;SDS011;16331;52.528;13.342;2023-02-08T04:57:56;45.75;;;16.27;;
29330;SDS011;16331;52.528;13.342;2023-02-08T05:00:22;41.55;;;15.48;;
29330;SDS011;16331;52.528;13.342;2023-02-08T05:02:55;47.05;;;15.18;;
29330;SDS011;16331;52.528;13.342;2023-02-08T05:05:29;41.67;;;14.55;;
29330;SDS011;16331;52.528;13.342;2023-02-08T05:07:57;40.38;;;13.77;;
29330;SDS011;16331;52.528;13.342;2023-02-08T05:10:30;36.38;;;12.35;;
29330;SDS011;16331;52.528;13.342;2023-02-08T05:13:00;42.05;;;14.90;;
29330;SDS011;16331;52.528;13.342;2023-02-08T05:15:27;37.10;;;13.07;;
29330;SDS011;16331;52.528;13.342;2023-02-08T05:17:57;40.25;;;14.85;;
29330;SDS011;16331;52.528;13.342;2023-02-08T05:20:23;34.47;;;14.57;;
29330;SDS011;16331;52.528;13.342;2023-02-08T05:22:49;37.35;;;14.20;;
29330;SDS011;16331;52.528;13.342;2023-02-08T05:25:15;38.83;;;13.02;;
29330;SDS011;16331;52.528;13.342;2023-02-08T05:27:46;36.22;;;14.02;;
29330;SDS011;16331;52.528;13.342;2023-02-08T05:30:16;40.92;;;14.90;;
29330;SDS011;16331;52.528;13.342;2023-02-08T05:32:47;40.63;;;13.15;;
29330;SDS011;16331;52.528;13.342;2023-02-08T05:35:19;34.03;;;13.48;;
29330;SDS011;16331;52.528;13.342;2023-02-08T05:37:45;33.20;;;13.50;;
29330;SDS011;16331;52.528;13.342;2023-02-08T05:40:13;42.05;;;13.52;;
29330;SDS011;16331;52.528;13.342;2023-02-08T05:42:44;42.13;;;13.63;;
29330;SDS011;16331;52.528;13.342;2023-02-08T05:45:14;37.50;;;14.57;;
29330;SDS011;16331;52.528;13.342;2023-02-08T05:47:53;38.83;;;13.73;;
29330;SDS011;16331;52.528;13.342;2023-02-08T05:50:19;42.35;;;13.48;;
29330;SDS011;16331;52.528;13.342;2023-02-08T05:52:47;42.97;;;14.23;;
29330;SDS011;16331;52.528;13.342;2023-02-08T05:55:16;41.20;;;14.20;;
29330;SDS011;16331;52.528;13.342;2023-02-08T05:57:42;48.10;;;15.10;;
29330;SDS011;16331;52.528;13.342;2023-02-08T06:00:10;49.22;;;13.20;;
29330;SDS011;16331;52.528;13.342;2023-02-08T06:02:40;42.38;;;14.75;;
29330;SDS011;16331;52.528;13.342;2023-02-08T06:05:27;45.53;;;14.35;;
29330;SDS011;16331;52.528;13.342;2023-02-08T06:08:02;43.58;;;13.75;;
29330;SDS011;16331;52.528;13.342;2023-02-08T06:10:39;48.63;;;14.57;;
29330;SDS011;16331;52.528;13.342;2023-02-08T06:13:09;42.50;;;13.35;;
29330;SDS011;16331;52.528;13.342;2023-02-08T06:16:05;37.03;;;12.35;;
29330;SDS011;16331;52.528;13.342;2023-02-08T06:18:58;40.42;;;13.30;;
29330;SDS011;16331;52.528;13.342;2023-02-08T06:21:30;37.45;;;13.35;;
29330;SDS011;16331;52.528;13.342;2023-02-08T06:24:32;35.00;;;15.63;;
29330;SDS011;16331;52.528;13.342;2023-02-08T06:27:20;51.97;;;15.73;;
29330;SDS011;16331;52.528;13.342;2023-02-08T06:29:48;43.08;;;15.60;;
29330;SDS011;16331;52.528;13.342;2023-02-08T06:32:18;37.33;;;14.95;;
29330;SDS011;16331;52.528;13.342;2023-02-08T06:34:51;34.75;;;13.40;;
29330;SDS011;16331;52.528;13.342;2023-02-08T06:37:18;41.58;;;13.82;;
29330;SDS011;16331;52.528;13.342;2023-02-08T06:39:46;33.65;;;13.57;;
29330;SDS011;16331;52.528;13.342;2023-02-08T06:42:12;38.85;;;13.77;;
29330;SDS011;16331;52.528;13.342;2023-02-08T06:44:40;27.10;;;11.70;;
29330;SDS011;16331;52.528;13.342;2023-02-08T06:47:09;39.55;;;16.00;;
29330;SDS011;16331;52.528;13.342;2023-02-08T06:49:36;36.10;;;13.82;;
29330;SDS011;16331;52.528;13.342;2023-02-08T06:52:02;32.65;;;12.70;;
29330;SDS011;16331;52.528;13.342;2023-02-08T06:54:29;41.00;;;15.23;;
29330;SDS011;16331;52.528;13.342;2023-02-08T06:56:57;45.38;;;15.30;;
29330;SDS011;16331;52.528;13.342;2023-02-08T06:59:23;40.05;;;14.52;;
29330;SDS011;16331;52.528;13.342;2023-02-08T07:01:52;39.30;;;14.05;;
29330;SDS011;16331;52.528;13.342;2023-02-08T07:04:25;44.10;;;15.77;;
29330;SDS011;16331;52.528;13.342;2023-02-08T07:06:55;44.42;;;15.48;;
29330;SDS011;16331;52.528;13.342;2023-02-08T07:09:23;37.67;;;15.32;;
29330;SDS011;16331;52.528;13.342;2023-02-08T07:12:12;36.97;;;14.70;;
29330;SDS011;16331;52.528;13.342;2023-02-08T07:14:44;44.22;;;14.15;;
29330;SDS011;16331;52.528;13.342;2023-02-08T07:17:11;56.58;;;16.60;;
29330;SDS011;16331;52.528;13.342;2023-02-08T07:19:39;40.40;;;14.95;;
29330;SDS011;16331;52.528;13.342;2023-02-08T07:22:17;47.53;;;14.30;;
29330;SDS011;16331;52.528;13.342;2023-02-08T07:24:45;39.28;;;12.88;;
29330;SDS011;16331;52.528;13.342;2023-02-08T07:27:14;35.25;;;13.18;;
29330;SDS011;16331;52.528;13.342;2023-02-08T07:29:40;47.17;;;14.57;;
29330;SDS011;16331;52.528;13.342;2023-02-08T07:32:07;41.65;;;13.52;;
29330;SDS011;16331;52.528;13.342;2023-02-08T07:34:35;41.78;;;14.88;;
29330;SDS011;16331;52.528;13.342;2023-02-08T07:37:02;39.70;;;13.60;;
29330;SDS011;16331;52.528;13.342;2023-02-08T07:39:29;35.58;;;13.85;;
29330;SDS011;16331;52.528;13.342;2023-02-08T07:41:55;39.58;;;14.85;;
29330;SDS011;16331;52.528;13.342;2023-02-08T07:44:22;41.15;;;15.18;;
29330;SDS011;16331;52.528;13.342;2023-02-08T07:46:48;36.28;;;14.70;;
29330;SDS011;16331;52.528;13.342;2023-02-08T07:49:17;32.72;;;13.27;;
29330;SDS011;16331;52.528;13.342;2023-02-08T07:51:43;43.00;;;15.02;;
29330;SDS011;16331;52.528;13.342;2023-02-08T07:54:09;38.42;;;13.95;;
29330;SDS011;16331;52.528;13.342;2023-02-08T07:56:35;39.72;;;14.30;;
29330;SDS011;16331;52.528;13.342;2023-02-08T07:59:01;42.20;;;14.27;;
29330;SDS011;16331;52.528;13.342;2023-02-08T08:01:27;38.70;;;14.57;;
29330;SDS011;16331;52.528;13.342;2023-02-08T08:04:13;40.47;;;14.60;;
29330;SDS011;16331;52.528;13.342;2023-02-08T08:06:40;43.65;;;14.48;;
29330;SDS011;16331;52.528;13.342;2023-02-08T08:09:06;44.80;;;16.20;;
29330;SDS011;16331;52.528;13.342;2023-02-08T08:11:32;42.30;;;13.88;;
29330;SDS011;16331;52.528;13.342;2023-02-08T08:13:58;49.22;;;15.20;;
29330;SDS011;16331;52.528;13.342;2023-02-08T08:19:21;30.88;;;14.05;;
29330;SDS011;16331;52.528;13.342;2023-02-08T08:21:47;45.00;;;15.30;;
29330;SDS011;16331;52.528;13.342;2023-02-08T08:24:14;34.17;;;13.02;;
29330;SDS011;16331;52.528;13.342;2023-02-08T08:26:43;34.88;;;13.48;;
29330;SDS011;16331;52.528;13.342;2023-02-08T08:29:10;42.70;;;14.82;;
29330;SDS011;16331;52.528;13.342;2023-02-08T08:31:37;36.00;;;13.48;;
29330;SDS011;16331;52.528;13.342;2023-02-08T08:34:03;45.80;;;14.30;;
29330;SDS011;16331;52.528;13.342;2023-02-08T08:36:37;38.90;;;14.07;;
29330;SDS011;16331;52.528;13.342;2023-02-08T08:39:03;30.63;;;12.52;;
29330;SDS011;16331;52.528;13.342;2023-02-08T08:41:33;43.55;;;14.40;;
29330;SDS011;16331;52.528;13.342;2023-02-08T08:44:02;44.13;;;15.45;;
29330;SDS011;16331;52.528;13.342;2023-02-08T08:46:28;46.35;;;15.82;;
29330;SDS011;16331;52.528;13.342;2023-02-08T08:48:54;38.28;;;16.48;;
29330;SDS011;16331;52.528;13.342;2023-02-08T08:51:21;37.22;;;14.18;;
29330;SDS011;16331;52.528;13.342;2023-02-08T08:53:47;47.05;;;15.07;;
29330;SDS011;16331;52.528;13.342;2023-02-08T08:56:16;45.50;;;16.13;;
29330;SDS011;16331;52.528;13.342;2023-02-08T08:58:44;37.80;;;14.38;;
29330;SDS011;16331;52.528;13.342;2023-02-08T09:01:11;42.88;;;15.45;;
29330;SDS011;16331;52.528;13.342;2023-02-08T09:03:37;46.97;;;16.90;;
29330;SDS011;16331;52.528;13.342;2023-02-08T09:06:04;37.67;;;14.55;;
29330;SDS011;16331;52.528;13.342;2023-02-08T09:08:30;42.25;;;14.60;;
29330;SDS011;16331;52.528;13.342;2023-02-08T09:11:13;48.45;;;15.27;;
29330;SDS011;16331;52.528;13.342;2023-02-08T09:13:40;48.50;;;15.35;;
29330;SDS011;16331;52.528;13.342;2023-02-08T09:16:09;49.70;;;17.50;;
29330;SDS011;16331;52.528;13.342;2023-02-08T09:18:35;45.53;;;15.63;;
29330;SDS011;16331;52.528;13.342;2023-02-08T09:21:09;50.72;;;16.17;;
29330;SDS011;16331;52.528;13.342;2023-02-08T09:23:37;55.83;;;17.27;;
29330;SDS011;16331;52.528;13.342;2023-02-08T09:26:07;48.13;;;16.63;;
29330;SDS011;16331;52.528;13.342;2023-02-08T09:28:36;42.78;;;16.40;;
29330;SDS011;16331;52.528;13.342;2023-02-08T09:33:35;44.13;;;15.50;;
29330;SDS011;16331;52.528;13.342;2023-02-08T09:36:03;51.25;;;17.00;;
29330;SDS011;16331;52.528;13.342;2023-02-08T09:38:31;42.55;;;15.68;;
29330;SDS011;16331;52.528;13.342;2023-02-08T09:47:21;49.33;;;17.27;;
29330;SDS011;16331;52.528;13.342;2023-02-08T09:49:56;53.35;;;17.45;;
29330;SDS011;16331;52.528;13.342;2023-02-08T09:52:39;47.50;;;18.42;;
29330;SDS011;16331;52.528;13.342;2023-02-08T09:58:43;42.47;;;16.25;;
29330;SDS011;16331;52.528;13.342;2023-02-08T10:01:31;44.33;;;17.63;;
29330;SDS011;16331;52.528;13.342;2023-02-08T10:04:05;48.15;;;17.42;;
29330;SDS011;16331;52.528;13.342;2023-02-08T10:06:48;37.70;;;17.30;;
29330;SDS011;16331;52.528;13.342;2023-02-08T10:09:17;53.85;;;17.98;;
29330;SDS011;16331;52.528;13.342;2023-02-08T10:18:19;42.10;;;16.75;;
29330;SDS011;16331;52.528;13.342;2023-02-08T10:24:13;48.05;;;16.10;;
29330;SDS011;16331;52.528;13.342;2023-02-08T10:35:12;51.50;;;17.02;;
29330;SDS011;16331;52.528;13.342;2023-02-08T10:40:58;46.90;;;17.73;;
29330;SDS011;16331;52.528;13.342;2023-02-08T10:43:53;48.22;;;15.82;;
29330;SDS011;16331;52.528;13.342;2023-02-08T10:52:24;36.97;;;16.40;;
29330;SDS011;16331;52.528;13.342;2023-02-08T10:54:53;43.85;;;16.50;;
29330;SDS011;16331;52.528;13.342;2023-02-08T10:57:46;48.00;;;17.38;;
29330;SDS011;16331;52.528;13.342;2023-02-08T11:00:38;42.40;;;14.93;;
29330;SDS011;16331;52.528;13.342;2023-02-08T11:03:26;53.03;;;16.38;;
29330;SDS011;16331;52.528;13.342;2023-02-08T11:05:55;48.13;;;17.08;;
29330;SDS011;16331;52.528;13.342;2023-02-08T11:08:26;49.08;;;17.20;;
29330;SDS011;16331;52.528;13.342;2023-02-08T11:11:03;52.45;;;16.65;;
29330;SDS011;16331;52.528;13.342;2023-02-08T11:13:39;43.80;;;17.05;;
29330;SDS011;16331;52.528;13.342;2023-02-08T11:16:23;43.08;;;15.95;;
29330;SDS011;16331;52.528;13.342;2023-02-08T11:21:24;49.78;;;17.52;;
29330;SDS011;16331;52.528;13.342;2023-02-08T11:24:21;38.63;;;15.55;;
29330;SDS011;16331;52.528;13.342;2023-02-08T11:26:54;49.55;;;16.83;;
29330;SDS011;16331;52.528;13.342;2023-02-08T11:29:25;44.95;;;17.10;;
29330;SDS011;16331;52.528;13.342;2023-02-08T11:32:20;48.42;;;16.27;;
29330;SDS011;16331;52.528;13.342;2023-02-08T11:34:52;43.88;;;16.98;;
29330;SDS011;16331;52.528;13.342;2023-02-08T11:37:51;40.72;;;15.57;;
29330;SDS011;16331;52.528;13.342;2023-02-08T11:41:19;41.08;;;15.23;;
29330;SDS011;16331;52.528;13.342;2023-02-08T11:44:05;47.92;;;14.45;;
29330;SDS011;16331;52.528;13.342;2023-02-08T11:46:33;48.78;;;17.95;;
29330;SDS011;16331;52.528;13.342;2023-02-08T11:49:00;46.45;;;16.85;;
29330;SDS011;16331;52.528;13.342;2023-02-08T11:51:35;38.55;;;16.52;;
29330;SDS011;16331;52.528;13.342;2023-02-08T11:54:02;48.58;;;16.27;;
29330;SDS011;16331;52.528;13.342;2023-02-08T11:56:31;43.50;;;17.25;;
29330;SDS011;16331;52.528;13.342;2023-02-08T11:59:17;40.67;;;15.13;;
29330;SDS011;16331;52.528;13.342;2023-02-08T12:01:47;51.72;;;16.58;;
29330;SDS011;16331;52.528;13.342;2023-02-08T12:04:24;58.75;;;17.10;;
29330;SDS011;16331;52.528;13.342;2023-02-08T12:07:35;40.42;;;14.93;;
29330;SDS011;16331;52.528;13.342;2023-02-08T12:10:13;54.63;;;16.92;;
29330;SDS011;16331;52.528;13.342;2023-02-08T12:15:56;49.45;;;16.48;;
29330;SDS011;16331;52.528;13.342;2023-02-08T12:21:53;41.92;;;15.52;;
29330;SDS011;16331;52.528;13.342;2023-02-08T12:24:35;42.75;;;17.50;;
29330;SDS011;16331;52.528;13.342;2023-02-08T12:38:28;41.13;;;13.80;;
29330;SDS011;16331;52.528;13.342;2023-02-08T12:52:49;40.13;;;15.20;;
29330;SDS011;16331;52.528;13.342;2023-02-08T12:55:33;45.67;;;17.23;;
29330;SDS011;16331;52.528;13.342;2023-02-08T13:01:15;44.05;;;16.70;;
29330;SDS011;16331;52.528;13.342;2023-02-08T13:06:47;42.97;;;15.65;;
29330;SDS011;16331;52.528;13.342;2023-02-08T13:17:49;52.55;;;17.08;;
29330;SDS011;16331;52.528;13.342;2023-02-08T13:23:25;42.58;;;17.48;;
29330;SDS011;16331;52.528;13.342;2023-02-08T13:26:14;44.20;;;15.05;;
29330;SDS011;16331;52.528;13.342;2023-02-08T13:28:56;44.20;;;16.38;;
29330;SDS011;16331;52.528;13.342;2023-02-08T13:31:47;40.45;;;16.20;;
29330;SDS011;16331;52.528;13.342;2023-02-08T13:34:40;37.70;;;15.13;;
29330;SDS011;16331;52.528;13.342;2023-02-08T13:37:28;41.90;;;16.23;;
29330;SDS011;16331;52.528;13.342;2023-02-08T13:40:19;40.65;;;17.42;;
29330;SDS011;16331;52.528;13.342;2023-02-08T13:45:37;40.13;;;16.67;;
29330;SDS011;16331;52.528;13.342;2023-02-08T13:48:09;53.20;;;17.20;;
29330;SDS011;16331;52.528;13.342;2023-02-08T13:50:50;46.28;;;16.52;;
29330;SDS011;16331;52.528;13.342;2023-02-08T13:59:38;45.00;;;17.33;;
29330;SDS011;16331;52.528;13.342;2023-02-08T14:02:17;54.33;;;16.77;;
29330;SDS011;16331;52.528;13.342;2023-02-08T14:04:58;42.45;;;16.48;;
29330;SDS011;16331;52.528;13.342;2023-02-08T14:08:05;47.40;;;15.95;;
29330;SDS011;16331;52.528;13.342;2023-02-08T14:10:42;48.33;;;16.08;;
29330;SDS011;16331;52.528;13.342;2023-02-08T14:13:23;48.05;;;17.58;;
29330;SDS011;16331;52.528;13.342;2023-02-08T14:18:50;40.20;;;14.98;;
29330;SDS011;16331;52.528;13.342;2023-02-08T14:21:28;43.95;;;14.85;;
29330;SDS011;16331;52.528;13.342;2023-02-08T14:24:18;41.17;;;14.60;;
29330;SDS011;16331;52.528;13.342;2023-02-08T14:26:49;40.15;;;14.85;;
29330;SDS011;16331;52.528;13.342;2023-02-08T14:29:29;46.25;;;16.15;;
29330;SDS011;16331;52.528;13.342;2023-02-08T14:31:59;44.55;;;15.13;;
29330;SDS011;16331;52.528;13.342;2023-02-08T14:34:27;45.42;;;15.57;;
29330;SDS011;16331;52.528;13.342;2023-02-08T14:39:45;39.35;;;14.43;;
29330;SDS011;16331;52.528;13.342;2023-02-08T14:42:15;38.88;;;15.48;;
29330;SDS011;16331;52.528;13.342;2023-02-08T14:45:26;47.00;;;16.95;;
29330;SDS011;16331;52.528;13.342;2023-02-08T14:47:56;41.08;;;15.57;;
29330;SDS011;16331;52.528;13.342;2023-02-08T14:50:51;45.17;;;16.13;;
29330;SDS011;16331;52.528;13.342;2023-02-08T14:56:34;46.30;;;17.23;;
29330;SDS011;16331;52.528;13.342;2023-02-08T14:59:15;47.72;;;16.58;;
29330;SDS011;16331;52.528;13.342;2023-02-08T15:01:56;49.10;;;16.52;;
29330;SDS011;16331;52.528;13.342;2023-02-08T15:04:25;49.33;;;16.35;;
29330;SDS011;16331;52.528;13.342;2023-02-08T15:09:34;41.40;;;14.35;;
29330;SDS011;16331;52.528;13.342;2023-02-08T15:15:05;44.22;;;15.98;;
29330;SDS011;16331;52.528;13.342;2023-02-08T15:17:45;39.83;;;14.52;;
29330;SDS011;16331;52.528;13.342;2023-02-08T15:20:16;40.92;;;14.98;;
29330;SDS011;16331;52.528;13.342;2023-02-08T15:22:57;45.42;;;15.65;;
29330;SDS011;16331;52.528;13.342;2023-02-08T15:26:32;45.10;;;16.35;;
29330;SDS011;16331;52.528;13.342;2023-02-08T15:28:47;35.85;;;13.60;;
29330;SDS011;16331;52.528;13.342;2023-02-08T15:31:23;37.25;;;14.88;;
29330;SDS011;16331;52.528;13.342;2023-02-08T15:33:56;41.30;;;13.60;;
29330;SDS011;16331;52.528;13.342;2023-02-08T15:39:03;34.45;;;13.05;;
29330;SDS011;16331;52.528;13.342;2023-02-08T15:41:36;40.70;;;13.35;;
29330;SDS011;16331;52.528;13.342;2023-02-08T15:44:13;38.80;;;14.52;;
29330;SDS011;16331;52.528;13.342;2023-02-08T15:46:46;41.33;;;13.90;;
29330;SDS011;16331;52.528;13.342;2023-02-08T15:49:18;42.40;;;14.55;;
29330;SDS011;16331;52.528;13.342;2023-02-08T15:52:18;37.35;;;13.48;;
29330;SDS011;16331;52.528;13.342;2023-02-08T15:55:05;48.78;;;16.15;;
29330;SDS011;16331;52.528;13.342;2023-02-08T15:57:40;46.92;;;15.18;;
29330;SDS011;16331;52.528;13.342;2023-02-08T16:00:25;42.13;;;15.75;;
29330;SDS011;16331;52.528;13.342;2023-02-08T16:02:59;42.63;;;14.88;;
29330;SDS011;16331;52.528;13.342;2023-02-08T16:05:31;55.97;;;16.08;;
29330;SDS011;16331;52.528;13.342;2023-02-08T16:10:43;42.95;;;14.07;;
29330;SDS011;16331;52.528;13.342;2023-02-08T16:13:20;39.67;;;14.75;;
29330;SDS011;16331;52.528;13.342;2023-02-08T16:18:57;36.97;;;13.52;;
29330;SDS011;16331;52.528;13.342;2023-02-08T16:21:33;38.55;;;13.55;;
29330;SDS011;16331;52.528;13.342;2023-02-08T16:29:18;46.35;;;14.45;;
29330;SDS011;16331;52.528;13.342;2023-02-08T16:31:55;41.25;;;14.20;;
29330;SDS011;16331;52.528;13.342;2023-02-08T16:34:27;40.40;;;14.57;;
29330;SDS011;16331;52.528;13.342;2023-02-08T16:36:57;44.58;;;14.57;;
29330;SDS011;16331;52.528;13.342;2023-02-08T16:39:36;42.85;;;14.63;;
29330;SDS011;16331;52.528;13.342;2023-02-08T16:42:21;42.90;;;13.80;;
29330;SDS011;16331;52.528;13.342;2023-02-08T16:47:54;45.28;;;14.10;;
29330;SDS011;16331;52.528;13.342;2023-02-08T16:50:24;43.65;;;15.23;;
29330;SDS011;16331;52.528;13.342;2023-02-08T16:52:53;38.65;;;14.65;;
29330;SDS011;16331;52.528;13.342;2023-02-08T16:55:25;40.97;;;14.23;;
29330;SDS011;16331;52.528;13.342;2023-02-08T16:57:59;41.40;;;14.70;;
29330;SDS011;16331;52.528;13.342;2023-02-08T17:02:53;42.45;;;15.00;;
29330;SDS011;16331;52.528;13.342;2023-02-08T17:05:21;38.67;;;13.48;;
29330;SDS011;16331;52.528;13.342;2023-02-08T17:08:02;48.40;;;13.20;;
29330;SDS011;16331;52.528;13.342;2023-02-08T17:10:32;43.35;;;13.05;;
29330;SDS011;16331;52.528;13.342;2023-02-08T17:12:59;41.25;;;14.05;;
29330;SDS011;16331;52.528;13.342;2023-02-08T17:15:26;38.35;;;13.55;;
29330;SDS011;16331;52.528;13.342;2023-02-08T17:18:14;38.92;;;13.68;;
29330;SDS011;16331;52.528;13.342;2023-02-08T17:20:46;45.97;;;15.02;;
29330;SDS011;16331;52.528;13.342;2023-02-08T17:23:12;35.97;;;13.10;;
29330;SDS011;16331;52.528;13.342;2023-02-08T17:28:21;38.95;;;12.82;;
29330;SDS011;16331;52.528;13.342;2023-02-08T17:30:47;43.42;;;12.98;;
29330;SDS011;16331;52.528;13.342;2023-02-08T17:33:14;36.88;;;13.90;;
29330;SDS011;16331;52.528;13.342;2023-02-08T17:35:47;36.72;;;12.85;;
29330;SDS011;16331;52.528;13.342;2023-02-08T17:38:15;40.20;;;12.63;;
29330;SDS011;16331;52.528;13.342;2023-02-08T17:40:44;36.13;;;13.05;;
29330;SDS011;16331;52.528;13.342;2023-02-08T17:43:10;37.50;;;15.23;;
29330;SDS011;16331;52.528;13.342;2023-02-08T17:45:38;39.92;;;13.88;;
29330;SDS011;16331;52.528;13.342;2023-02-08T17:48:07;34.83;;;11.10;;